sensor_id;sensor_type;location;lat;lon;timestamp;P1;durP1;ratioP1;P2;durP2;ratioP2
24159;SDS011;62385;41.594;23.808;2023-05-07T00:01:42;3.00;;;1.25;;
24159;SDS011;62385;41.594;23.808;2023-05-07T00:04:08;1.67;;;1.20;;
24159;SDS011;62385;41.594;23.808;2023-05-07T00:06:33;1.48;;;1.17;;
24159;SDS011;62385;41.594;23.808;2023-05-07T00:08:59;4.53;;;1.98;;
24159;SDS011;62385;41.594;23.808;2023-05-07T00:11:26;0.75;;;0.50;;
24159;SDS011;62385;41.594;23.808;2023-05-07T00:13:52;2.20;;;1.02;;
24159;SDS011;62385;41.594;23.808;2023-05-07T00:16:18;1.50;;;1.15;;
24159;SDS011;62385;41.594;23.808;2023-05-07T00:18:46;1.73;;;1.25;;
24159;SDS011;62385;41.594;23.808;2023-05-07T00:21:12;1.77;;;1.33;;
24159;SDS011;62385;41.594;23.808;2023-05-07T00:23:37;1.65;;;0.95;;
24159;SDS011;62385;41.594;23.808;2023-05-07T00:26:03;0.95;;;0.82;;
24159;SDS011;62385;41.594;23.808;2023-05-07T00:28:29;1.67;;;1.00;;
24159;SDS011;62385;41.594;23.808;2023-05-07T00:30:55;3.75;;;1.15;;
24159;SDS011;62385;41.594;23.808;2023-05-07T00:33:21;2.80;;;1.67;;
24159;SDS011;62385;41.594;23.808;2023-05-07T00:35:53;1.55;;;0.95;;
24159;SDS011;62385;41.594;23.808;2023-05-07T00:38:23;1.30;;;1.05;;
24159;SDS011;62385;41.594;23.808;2023-05-07T00:40:48;1.50;;;1.38;;
24159;SDS011;62385;41.594;23.808;2023-05-07T00:43:14;2.03;;;1.15;;
24159;SDS011;62385;41.594;23.808;2023-05-07T00:45:40;1.20;;;1.00;;
24159;SDS011;62385;41.594;23.808;2023-05-07T00:48:05;1.40;;;1.17;;
24159;SDS011;62385;41.594;23.808;2023-05-07T00:50:31;1.85;;;1.20;;
24159;SDS011;62385;41.594;23.808;2023-05-07T00:52:59;3.47;;;1.55;;
24159;SDS011;62385;41.594;23.808;2023-05-07T00:55:25;1.05;;;0.52;;
24159;SDS011;62385;41.594;23.808;2023-05-07T00:57:52;1.05;;;0.90;;
24159;SDS011;62385;41.594;23.808;2023-05-07T01:00:17;1.70;;;0.90;;
24159;SDS011;62385;41.594;23.808;2023-05-07T01:02:44;1.73;;;0.73;;
24159;SDS011;62385;41.594;23.808;2023-05-07T01:05:13;1.65;;;1.05;;
24159;SDS011;62385;41.594;23.808;2023-05-07T01:07:41;8.68;;;1.23;;
24159;SDS011;62385;41.594;23.808;2023-05-07T01:10:07;0.80;;;0.47;;
24159;SDS011;62385;41.594;23.808;2023-05-07T01:12:35;1.45;;;1.33;;
24159;SDS011;62385;41.594;23.808;2023-05-07T01:15:02;3.63;;;1.33;;
24159;SDS011;62385;41.594;23.808;2023-05-07T01:17:32;3.13;;;1.08;;
24159;SDS011;62385;41.594;23.808;2023-05-07T01:20:00;0.98;;;0.75;;
24159;SDS011;62385;41.594;23.808;2023-05-07T01:22:30;1.48;;;0.77;;
24159;SDS011;62385;41.594;23.808;2023-05-07T01:25:03;2.88;;;1.10;;
24159;SDS011;62385;41.594;23.808;2023-05-07T01:27:34;4.60;;;2.60;;
24159;SDS011;62385;41.594;23.808;2023-05-07T01:30:01;2.13;;;1.08;;
24159;SDS011;62385;41.594;23.808;2023-05-07T01:32:29;0.70;;;0.70;;
24159;SDS011;62385;41.594;23.808;2023-05-07T01:35:01;8.60;;;1.05;;
24159;SDS011;62385;41.594;23.808;2023-05-07T01:37:30;2.40;;;1.60;;
24159;SDS011;62385;41.594;23.808;2023-05-07T01:39:56;1.67;;;1.20;;
24159;SDS011;62385;41.594;23.808;2023-05-07T01:42:22;3.60;;;1.13;;
24159;SDS011;62385;41.594;23.808;2023-05-07T01:44:49;1.35;;;0.80;;
24159;SDS011;62385;41.594;23.808;2023-05-07T01:47:14;2.35;;;1.77;;
24159;SDS011;62385;41.594;23.808;2023-05-07T01:49:42;1.05;;;0.95;;
24159;SDS011;62385;41.594;23.808;2023-05-07T01:52:08;2.58;;;1.15;;
24159;SDS011;62385;41.594;23.808;2023-05-07T01:54:35;1.08;;;0.98;;
24159;SDS011;62385;41.594;23.808;2023-05-07T01:57:01;1.60;;;1.13;;
24159;SDS011;62385;41.594;23.808;2023-05-07T01:59:26;2.63;;;0.88;;
24159;SDS011;62385;41.594;23.808;2023-05-07T02:01:52;11.70;;;1.08;;
24159;SDS011;62385;41.594;23.808;2023-05-07T02:04:18;1.45;;;1.10;;
24159;SDS011;62385;41.594;23.808;2023-05-07T02:06:44;1.80;;;0.88;;
24159;SDS011;62385;41.594;23.808;2023-05-07T02:09:13;1.17;;;1.02;;
24159;SDS011;62385;41.594;23.808;2023-05-07T02:11:43;1.88;;;0.77;;
24159;SDS011;62385;41.594;23.808;2023-05-07T02:14:09;2.25;;;1.15;;
24159;SDS011;62385;41.594;23.808;2023-05-07T02:16:35;1.67;;;0.95;;
24159;SDS011;62385;41.594;23.808;2023-05-07T02:19:00;3.05;;;1.00;;
24159;SDS011;62385;41.594;23.808;2023-05-07T02:21:26;0.60;;;0.60;;
24159;SDS011;62385;41.594;23.808;2023-05-07T02:23:51;1.48;;;1.17;;
24159;SDS011;62385;41.594;23.808;2023-05-07T02:26:17;1.25;;;0.85;;
24159;SDS011;62385;41.594;23.808;2023-05-07T02:28:43;2.17;;;1.10;;
24159;SDS011;62385;41.594;23.808;2023-05-07T02:31:09;4.63;;;1.15;;
24159;SDS011;62385;41.594;23.808;2023-05-07T02:33:34;6.25;;;4.10;;
24159;SDS011;62385;41.594;23.808;2023-05-07T02:36:10;4.05;;;2.55;;
24159;SDS011;62385;41.594;23.808;2023-05-07T02:39:03;1.90;;;1.42;;
24159;SDS011;62385;41.594;23.808;2023-05-07T02:41:29;1.17;;;1.08;;
24159;SDS011;62385;41.594;23.808;2023-05-07T02:43:54;7.63;;;2.15;;
24159;SDS011;62385;41.594;23.808;2023-05-07T02:46:21;1.63;;;1.33;;
24159;SDS011;62385;41.594;23.808;2023-05-07T02:48:53;1.25;;;1.15;;
24159;SDS011;62385;41.594;23.808;2023-05-07T02:51:19;2.78;;;1.55;;
24159;SDS011;62385;41.594;23.808;2023-05-07T02:53:46;3.17;;;1.80;;
24159;SDS011;62385;41.594;23.808;2023-05-07T02:56:12;2.65;;;1.75;;
24159;SDS011;62385;41.594;23.808;2023-05-07T02:58:37;2.85;;;1.15;;
24159;SDS011;62385;41.594;23.808;2023-05-07T03:01:08;1.83;;;1.40;;
24159;SDS011;62385;41.594;23.808;2023-05-07T03:03:41;1.45;;;0.90;;
24159;SDS011;62385;41.594;23.808;2023-05-07T03:06:07;1.42;;;1.20;;
24159;SDS011;62385;41.594;23.808;2023-05-07T03:08:32;1.00;;;0.88;;
24159;SDS011;62385;41.594;23.808;2023-05-07T03:10:58;3.78;;;1.50;;
24159;SDS011;62385;41.594;23.808;2023-05-07T03:13:24;2.55;;;1.55;;
24159;SDS011;62385;41.594;23.808;2023-05-07T03:15:50;2.80;;;1.20;;
24159;SDS011;62385;41.594;23.808;2023-05-07T03:18:16;1.10;;;1.00;;
24159;SDS011;62385;41.594;23.808;2023-05-07T03:20:43;1.80;;;1.23;;
24159;SDS011;62385;41.594;23.808;2023-05-07T03:23:08;1.70;;;1.08;;
24159;SDS011;62385;41.594;23.808;2023-05-07T03:25:35;2.30;;;1.77;;
24159;SDS011;62385;41.594;23.808;2023-05-07T03:28:01;14.27;;;4.95;;
24159;SDS011;62385;41.594;23.808;2023-05-07T03:30:35;11.73;;;5.30;;
24159;SDS011;62385;41.594;23.808;2023-05-07T03:33:01;5.97;;;4.28;;
24159;SDS011;62385;41.594;23.808;2023-05-07T03:35:27;2.78;;;2.20;;
24159;SDS011;62385;41.594;23.808;2023-05-07T03:37:53;2.40;;;1.90;;
24159;SDS011;62385;41.594;23.808;2023-05-07T03:40:20;3.63;;;2.05;;
24159;SDS011;62385;41.594;23.808;2023-05-07T03:42:53;5.22;;;3.67;;
24159;SDS011;62385;41.594;23.808;2023-05-07T03:45:25;3.75;;;2.40;;
24159;SDS011;62385;41.594;23.808;2023-05-07T03:48:00;5.32;;;2.88;;
24159;SDS011;62385;41.594;23.808;2023-05-07T03:50:26;4.55;;;3.63;;
24159;SDS011;62385;41.594;23.808;2023-05-07T03:52:51;8.02;;;4.10;;
24159;SDS011;62385;41.594;23.808;2023-05-07T03:55:20;4.20;;;2.42;;
24159;SDS011;62385;41.594;23.808;2023-05-07T03:57:50;2.53;;;1.02;;
24159;SDS011;62385;41.594;23.808;2023-05-07T04:00:17;3.22;;;1.77;;
24159;SDS011;62385;41.594;23.808;2023-05-07T04:02:48;1.55;;;1.45;;
24159;SDS011;62385;41.594;23.808;2023-05-07T04:05:18;1.92;;;1.40;;
24159;SDS011;62385;41.594;23.808;2023-05-07T04:07:48;7.20;;;3.38;;
24159;SDS011;62385;41.594;23.808;2023-05-07T04:10:18;2.50;;;1.90;;
24159;SDS011;62385;41.594;23.808;2023-05-07T04:12:46;3.85;;;2.70;;
24159;SDS011;62385;41.594;23.808;2023-05-07T04:15:16;3.78;;;2.42;;
24159;SDS011;62385;41.594;23.808;2023-05-07T04:17:42;14.00;;;7.07;;
24159;SDS011;62385;41.594;23.808;2023-05-07T04:20:15;2.88;;;2.00;;
24159;SDS011;62385;41.594;23.808;2023-05-07T04:22:43;3.85;;;2.95;;
24159;SDS011;62385;41.594;23.808;2023-05-07T04:25:09;3.75;;;2.22;;
24159;SDS011;62385;41.594;23.808;2023-05-07T04:27:36;3.03;;;2.35;;
24159;SDS011;62385;41.594;23.808;2023-05-07T04:30:03;3.40;;;2.03;;
24159;SDS011;62385;41.594;23.808;2023-05-07T04:32:33;2.95;;;2.10;;
24159;SDS011;62385;41.594;23.808;2023-05-07T04:34:59;1.55;;;1.42;;
24159;SDS011;62385;41.594;23.808;2023-05-07T04:37:25;2.33;;;1.83;;
24159;SDS011;62385;41.594;23.808;2023-05-07T04:39:51;5.25;;;2.88;;
24159;SDS011;62385;41.594;23.808;2023-05-07T04:42:18;6.90;;;3.17;;
24159;SDS011;62385;41.594;23.808;2023-05-07T04:44:44;6.00;;;2.13;;
24159;SDS011;62385;41.594;23.808;2023-05-07T04:47:13;1.98;;;1.83;;
24159;SDS011;62385;41.594;23.808;2023-05-07T04:49:39;1.35;;;1.23;;
24159;SDS011;62385;41.594;23.808;2023-05-07T04:52:05;4.25;;;2.05;;
24159;SDS011;62385;41.594;23.808;2023-05-07T04:54:31;2.20;;;1.55;;
24159;SDS011;62385;41.594;23.808;2023-05-07T04:56:57;2.22;;;1.45;;
24159;SDS011;62385;41.594;23.808;2023-05-07T04:59:22;4.82;;;2.33;;
24159;SDS011;62385;41.594;23.808;2023-05-07T05:01:50;2.95;;;2.40;;
24159;SDS011;62385;41.594;23.808;2023-05-07T05:04:15;7.90;;;3.80;;
24159;SDS011;62385;41.594;23.808;2023-05-07T05:06:41;4.78;;;3.75;;
24159;SDS011;62385;41.594;23.808;2023-05-07T05:09:07;7.43;;;4.40;;
24159;SDS011;62385;41.594;23.808;2023-05-07T05:11:33;6.93;;;3.45;;
24159;SDS011;62385;41.594;23.808;2023-05-07T05:13:59;5.22;;;2.22;;
24159;SDS011;62385;41.594;23.808;2023-05-07T05:16:26;4.22;;;1.92;;
24159;SDS011;62385;41.594;23.808;2023-05-07T05:18:54;5.90;;;1.88;;
24159;SDS011;62385;41.594;23.808;2023-05-07T05:21:21;2.10;;;1.58;;
24159;SDS011;62385;41.594;23.808;2023-05-07T05:23:50;2.83;;;2.50;;
24159;SDS011;62385;41.594;23.808;2023-05-07T05:26:19;3.80;;;2.30;;
24159;SDS011;62385;41.594;23.808;2023-05-07T05:29:14;8.02;;;3.45;;
24159;SDS011;62385;41.594;23.808;2023-05-07T05:31:53;3.17;;;2.80;;
24159;SDS011;62385;41.594;23.808;2023-05-07T05:34:50;3.88;;;2.55;;
24159;SDS011;62385;41.594;23.808;2023-05-07T05:37:52;5.65;;;1.80;;
24159;SDS011;62385;41.594;23.808;2023-05-07T05:49:11;3.35;;;2.28;;
24159;SDS011;62385;41.594;23.808;2023-05-07T05:59:06;7.95;;;3.35;;
24159;SDS011;62385;41.594;23.808;2023-05-07T06:02:11;5.90;;;3.70;;
24159;SDS011;62385;41.594;23.808;2023-05-07T06:04:37;5.35;;;2.53;;
24159;SDS011;62385;41.594;23.808;2023-05-07T06:07:12;4.00;;;2.17;;
24159;SDS011;62385;41.594;23.808;2023-05-07T06:09:38;8.73;;;4.05;;
24159;SDS011;62385;41.594;23.808;2023-05-07T06:12:04;3.17;;;2.42;;
24159;SDS011;62385;41.594;23.808;2023-05-07T06:14:30;11.98;;;5.40;;
24159;SDS011;62385;41.594;23.808;2023-05-07T06:16:56;11.80;;;5.75;;
24159;SDS011;62385;41.594;23.808;2023-05-07T06:19:22;9.80;;;6.00;;
24159;SDS011;62385;41.594;23.808;2023-05-07T06:21:50;5.65;;;3.20;;
24159;SDS011;62385;41.594;23.808;2023-05-07T06:24:15;6.80;;;3.13;;
24159;SDS011;62385;41.594;23.808;2023-05-07T06:26:42;2.95;;;2.45;;
24159;SDS011;62385;41.594;23.808;2023-05-07T06:29:07;3.92;;;2.25;;
24159;SDS011;62385;41.594;23.808;2023-05-07T06:31:33;3.58;;;1.85;;
24159;SDS011;62385;41.594;23.808;2023-05-07T06:34:05;5.43;;;2.58;;
24159;SDS011;62385;41.594;23.808;2023-05-07T06:36:34;2.50;;;1.92;;
24159;SDS011;62385;41.594;23.808;2023-05-07T06:39:06;4.72;;;2.55;;
24159;SDS011;62385;41.594;23.808;2023-05-07T06:41:32;4.35;;;2.40;;
24159;SDS011;62385;41.594;23.808;2023-05-07T06:44:04;7.10;;;5.03;;
24159;SDS011;62385;41.594;23.808;2023-05-07T06:46:53;3.25;;;2.13;;
24159;SDS011;62385;41.594;23.808;2023-05-07T06:49:19;10.70;;;2.67;;
24159;SDS011;62385;41.594;23.808;2023-05-07T06:51:47;2.00;;;1.50;;
24159;SDS011;62385;41.594;23.808;2023-05-07T06:54:14;5.13;;;1.80;;
24159;SDS011;62385;41.594;23.808;2023-05-07T06:56:42;3.63;;;2.42;;
24159;SDS011;62385;41.594;23.808;2023-05-07T06:59:08;3.65;;;1.63;;
24159;SDS011;62385;41.594;23.808;2023-05-07T07:01:37;2.08;;;1.83;;
24159;SDS011;62385;41.594;23.808;2023-05-07T07:04:04;3.22;;;1.65;;
24159;SDS011;62385;41.594;23.808;2023-05-07T07:06:30;2.28;;;1.80;;
24159;SDS011;62385;41.594;23.808;2023-05-07T07:08:58;9.02;;;2.20;;
24159;SDS011;62385;41.594;23.808;2023-05-07T07:11:24;2.45;;;1.63;;
24159;SDS011;62385;41.594;23.808;2023-05-07T07:13:50;5.97;;;2.20;;
24159;SDS011;62385;41.594;23.808;2023-05-07T07:16:16;2.40;;;1.50;;
24159;SDS011;62385;41.594;23.808;2023-05-07T07:18:42;3.05;;;1.65;;
24159;SDS011;62385;41.594;23.808;2023-05-07T07:21:07;5.20;;;2.42;;
24159;SDS011;62385;41.594;23.808;2023-05-07T07:23:33;2.63;;;1.67;;
24159;SDS011;62385;41.594;23.808;2023-05-07T07:25:59;3.83;;;1.25;;
24159;SDS011;62385;41.594;23.808;2023-05-07T07:28:25;1.52;;;1.35;;
24159;SDS011;62385;41.594;23.808;2023-05-07T07:30:51;1.88;;;1.33;;
24159;SDS011;62385;41.594;23.808;2023-05-07T07:33:17;1.65;;;1.20;;
24159;SDS011;62385;41.594;23.808;2023-05-07T07:35:43;2.42;;;1.40;;
24159;SDS011;62385;41.594;23.808;2023-05-07T07:38:09;1.35;;;1.05;;
24159;SDS011;62385;41.594;23.808;2023-05-07T07:40:35;0.95;;;0.88;;
24159;SDS011;62385;41.594;23.808;2023-05-07T07:43:02;5.35;;;1.73;;
24159;SDS011;62385;41.594;23.808;2023-05-07T07:45:28;1.27;;;1.00;;
24159;SDS011;62385;41.594;23.808;2023-05-07T07:47:54;1.50;;;0.95;;
24159;SDS011;62385;41.594;23.808;2023-05-07T07:50:20;3.88;;;1.35;;
24159;SDS011;62385;41.594;23.808;2023-05-07T07:52:47;1.80;;;1.38;;
24159;SDS011;62385;41.594;23.808;2023-05-07T07:55:15;1.77;;;1.17;;
24159;SDS011;62385;41.594;23.808;2023-05-07T07:57:46;1.35;;;1.20;;
24159;SDS011;62385;41.594;23.808;2023-05-07T08:00:12;1.83;;;1.30;;
24159;SDS011;62385;41.594;23.808;2023-05-07T08:02:49;1.00;;;0.90;;
24159;SDS011;62385;41.594;23.808;2023-05-07T08:05:21;2.30;;;1.45;;
24159;SDS011;62385;41.594;23.808;2023-05-07T08:07:48;2.30;;;1.38;;
24159;SDS011;62385;41.594;23.808;2023-05-07T08:10:20;1.02;;;0.93;;
24159;SDS011;62385;41.594;23.808;2023-05-07T08:12:48;3.10;;;1.85;;
24159;SDS011;62385;41.594;23.808;2023-05-07T08:15:16;3.05;;;1.58;;
24159;SDS011;62385;41.594;23.808;2023-05-07T08:17:42;1.88;;;1.77;;
24159;SDS011;62385;41.594;23.808;2023-05-07T08:20:09;1.98;;;1.58;;
24159;SDS011;62385;41.594;23.808;2023-05-07T08:22:35;1.75;;;1.58;;
24159;SDS011;62385;41.594;23.808;2023-05-07T08:25:02;3.83;;;1.30;;
24159;SDS011;62385;41.594;23.808;2023-05-07T08:27:28;2.08;;;1.48;;
24159;SDS011;62385;41.594;23.808;2023-05-07T08:29:54;2.38;;;1.45;;
24159;SDS011;62385;41.594;23.808;2023-05-07T08:32:21;1.65;;;1.08;;
24159;SDS011;62385;41.594;23.808;2023-05-07T08:34:47;1.63;;;1.35;;
24159;SDS011;62385;41.594;23.808;2023-05-07T08:37:13;1.52;;;0.90;;
24159;SDS011;62385;41.594;23.808;2023-05-07T08:39:39;2.00;;;1.20;;
24159;SDS011;62385;41.594;23.808;2023-05-07T08:42:10;1.20;;;1.00;;
24159;SDS011;62385;41.594;23.808;2023-05-07T08:44:38;2.30;;;1.00;;
24159;SDS011;62385;41.594;23.808;2023-05-07T08:47:06;2.53;;;1.80;;
24159;SDS011;62385;41.594;23.808;2023-05-07T08:49:33;0.80;;;0.80;;
24159;SDS011;62385;41.594;23.808;2023-05-07T08:51:59;7.05;;;1.33;;
24159;SDS011;62385;41.594;23.808;2023-05-07T08:54:26;1.88;;;0.98;;
24159;SDS011;62385;41.594;23.808;2023-05-07T08:56:53;0.80;;;0.80;;
24159;SDS011;62385;41.594;23.808;2023-05-07T08:59:19;3.72;;;1.27;;
24159;SDS011;62385;41.594;23.808;2023-05-07T09:01:45;2.17;;;1.27;;
24159;SDS011;62385;41.594;23.808;2023-05-07T09:04:11;3.78;;;1.20;;
24159;SDS011;62385;41.594;23.808;2023-05-07T09:06:38;2.35;;;1.05;;
24159;SDS011;62385;41.594;23.808;2023-05-07T09:09:08;1.23;;;0.85;;
24159;SDS011;62385;41.594;23.808;2023-05-07T09:11:34;2.53;;;1.65;;
24159;SDS011;62385;41.594;23.808;2023-05-07T09:14:01;3.72;;;1.23;;
24159;SDS011;62385;41.594;23.808;2023-05-07T09:16:31;2.70;;;1.25;;
24159;SDS011;62385;41.594;23.808;2023-05-07T09:18:59;0.82;;;0.77;;
24159;SDS011;62385;41.594;23.808;2023-05-07T09:21:26;1.33;;;0.93;;
24159;SDS011;62385;41.594;23.808;2023-05-07T09:23:54;1.17;;;0.88;;
24159;SDS011;62385;41.594;23.808;2023-05-07T09:26:26;1.83;;;1.08;;
24159;SDS011;62385;41.594;23.808;2023-05-07T09:28:53;1.05;;;0.82;;
24159;SDS011;62385;41.594;23.808;2023-05-07T09:31:19;1.67;;;1.25;;
24159;SDS011;62385;41.594;23.808;2023-05-07T09:33:45;1.20;;;1.00;;
24159;SDS011;62385;41.594;23.808;2023-05-07T09:36:12;1.73;;;1.40;;
24159;SDS011;62385;41.594;23.808;2023-05-07T09:38:40;1.33;;;0.90;;
24159;SDS011;62385;41.594;23.808;2023-05-07T09:41:09;1.02;;;0.88;;
24159;SDS011;62385;41.594;23.808;2023-05-07T09:43:43;1.33;;;0.80;;
24159;SDS011;62385;41.594;23.808;2023-05-07T09:46:13;1.48;;;1.20;;
24159;SDS011;62385;41.594;23.808;2023-05-07T09:48:45;1.70;;;1.25;;
24159;SDS011;62385;41.594;23.808;2023-05-07T09:53:58;1.10;;;0.73;;
24159;SDS011;62385;41.594;23.808;2023-05-07T09:56:27;3.53;;;1.30;;
24159;SDS011;62385;41.594;23.808;2023-05-07T09:58:55;1.27;;;1.10;;
24159;SDS011;62385;41.594;23.808;2023-05-07T10:01:24;0.65;;;0.60;;
24159;SDS011;62385;41.594;23.808;2023-05-07T10:03:50;0.73;;;0.70;;
24159;SDS011;62385;41.594;23.808;2023-05-07T10:06:22;1.13;;;1.00;;
24159;SDS011;62385;41.594;23.808;2023-05-07T10:08:50;1.77;;;0.93;;
24159;SDS011;62385;41.594;23.808;2023-05-07T10:11:17;1.42;;;0.80;;
24159;SDS011;62385;41.594;23.808;2023-05-07T10:13:43;0.77;;;0.63;;
24159;SDS011;62385;41.594;23.808;2023-05-07T10:16:11;0.90;;;0.77;;
24159;SDS011;62385;41.594;23.808;2023-05-07T10:18:45;0.57;;;0.40;;
24159;SDS011;62385;41.594;23.808;2023-05-07T10:21:17;1.02;;;0.95;;
24159;SDS011;62385;41.594;23.808;2023-05-07T10:23:50;1.20;;;0.85;;
24159;SDS011;62385;41.594;23.808;2023-05-07T10:26:23;0.80;;;0.73;;
24159;SDS011;62385;41.594;23.808;2023-05-07T10:28:58;1.05;;;0.60;;
24159;SDS011;62385;41.594;23.808;2023-05-07T10:34:33;0.68;;;0.60;;
24159;SDS011;62385;41.594;23.808;2023-05-07T10:37:06;0.85;;;0.70;;
24159;SDS011;62385;41.594;23.808;2023-05-07T10:39:32;0.68;;;0.57;;
24159;SDS011;62385;41.594;23.808;2023-05-07T10:42:08;0.50;;;0.40;;
24159;SDS011;62385;41.594;23.808;2023-05-07T10:44:37;0.65;;;0.40;;
24159;SDS011;62385;41.594;23.808;2023-05-07T10:47:10;0.57;;;0.40;;
24159;SDS011;62385;41.594;23.808;2023-05-07T10:52:20;0.57;;;0.40;;
24159;SDS011;62385;41.594;23.808;2023-05-07T10:58:22;2.13;;;0.88;;
24159;SDS011;62385;41.594;23.808;2023-05-07T11:00:59;1.45;;;0.55;;
24159;SDS011;62385;41.594;23.808;2023-05-07T11:03:32;0.68;;;0.60;;
24159;SDS011;62385;41.594;23.808;2023-05-07T11:06:12;0.45;;;0.40;;
24159;SDS011;62385;41.594;23.808;2023-05-07T11:08:54;1.20;;;1.05;;
24159;SDS011;62385;41.594;23.808;2023-05-07T11:11:44;0.47;;;0.30;;
24159;SDS011;62385;41.594;23.808;2023-05-07T11:17:14;1.50;;;0.60;;
24159;SDS011;62385;41.594;23.808;2023-05-07T11:19:53;0.40;;;0.30;;
24159;SDS011;62385;41.594;23.808;2023-05-07T11:22:53;1.33;;;0.75;;
24159;SDS011;62385;41.594;23.808;2023-05-07T11:25:32;0.45;;;0.40;;
24159;SDS011;62385;41.594;23.808;2023-05-07T11:28:14;0.68;;;0.50;;
24159;SDS011;62385;41.594;23.808;2023-05-07T11:30:46;3.00;;;1.02;;
24159;SDS011;62385;41.594;23.808;2023-05-07T11:33:17;5.65;;;0.88;;
24159;SDS011;62385;41.594;23.808;2023-05-07T11:35:44;1.05;;;0.73;;
24159;SDS011;62385;41.594;23.808;2023-05-07T11:38:12;0.50;;;0.50;;
24159;SDS011;62385;41.594;23.808;2023-05-07T11:40:56;0.50;;;0.50;;
24159;SDS011;62385;41.594;23.808;2023-05-07T11:43:26;0.73;;;0.63;;
24159;SDS011;62385;41.594;23.808;2023-05-07T11:45:51;0.82;;;0.40;;
24159;SDS011;62385;41.594;23.808;2023-05-07T11:48:18;0.50;;;0.50;;
24159;SDS011;62385;41.594;23.808;2023-05-07T11:50:53;0.75;;;0.63;;
24159;SDS011;62385;41.594;23.808;2023-05-07T11:53:36;0.55;;;0.55;;
24159;SDS011;62385;41.594;23.808;2023-05-07T11:56:08;0.40;;;0.40;;
24159;SDS011;62385;41.594;23.808;2023-05-07T11:58:35;0.80;;;0.60;;
24159;SDS011;62385;41.594;23.808;2023-05-07T12:01:02;0.60;;;0.50;;
24159;SDS011;62385;41.594;23.808;2023-05-07T12:03:28;0.50;;;0.50;;
24159;SDS011;62385;41.594;23.808;2023-05-07T12:05:54;1.05;;;0.73;;
24159;SDS011;62385;41.594;23.808;2023-05-07T12:08:20;0.85;;;0.70;;
24159;SDS011;62385;41.594;23.808;2023-05-07T12:10:48;0.85;;;0.50;;
24159;SDS011;62385;41.594;23.808;2023-05-07T12:13:16;0.98;;;0.55;;
24159;SDS011;62385;41.594;23.808;2023-05-07T12:15:45;0.40;;;0.40;;
24159;SDS011;62385;41.594;23.808;2023-05-07T12:18:11;0.60;;;0.50;;
24159;SDS011;62385;41.594;23.808;2023-05-07T12:20:38;0.55;;;0.47;;
24159;SDS011;62385;41.594;23.808;2023-05-07T12:23:04;0.82;;;0.50;;
24159;SDS011;62385;41.594;23.808;2023-05-07T12:25:31;0.60;;;0.50;;
24159;SDS011;62385;41.594;23.808;2023-05-07T12:27:57;0.80;;;0.43;;
24159;SDS011;62385;41.594;23.808;2023-05-07T12:30:26;1.08;;;0.68;;
24159;SDS011;62385;41.594;23.808;2023-05-07T12:32:55;0.75;;;0.40;;
24159;SDS011;62385;41.594;23.808;2023-05-07T12:35:28;0.50;;;0.50;;
24159;SDS011;62385;41.594;23.808;2023-05-07T12:37:55;0.63;;;0.47;;
24159;SDS011;62385;41.594;23.808;2023-05-07T12:40:21;1.35;;;0.88;;
24159;SDS011;62385;41.594;23.808;2023-05-07T12:42:47;0.98;;;0.47;;
24159;SDS011;62385;41.594;23.808;2023-05-07T12:45:19;0.68;;;0.45;;
24159;SDS011;62385;41.594;23.808;2023-05-07T12:47:45;1.27;;;0.55;;
24159;SDS011;62385;41.594;23.808;2023-05-07T12:50:12;0.70;;;0.70;;
24159;SDS011;62385;41.594;23.808;2023-05-07T12:52:39;1.60;;;0.60;;
24159;SDS011;62385;41.594;23.808;2023-05-07T12:55:05;0.85;;;0.60;;
24159;SDS011;62385;41.594;23.808;2023-05-07T12:57:42;0.82;;;0.68;;
24159;SDS011;62385;41.594;23.808;2023-05-07T13:00:12;1.52;;;0.70;;
24159;SDS011;62385;41.594;23.808;2023-05-07T13:02:38;0.85;;;0.77;;
24159;SDS011;62385;41.594;23.808;2023-05-07T13:05:05;1.95;;;0.88;;
24159;SDS011;62385;41.594;23.808;2023-05-07T13:07:30;0.80;;;0.50;;
24159;SDS011;62385;41.594;23.808;2023-05-07T13:09:56;10.52;;;0.93;;
24159;SDS011;62385;41.594;23.808;2023-05-07T13:12:21;1.88;;;0.70;;
24159;SDS011;62385;41.594;23.808;2023-05-07T13:14:47;0.57;;;0.57;;
24159;SDS011;62385;41.594;23.808;2023-05-07T13:17:13;1.23;;;0.93;;
24159;SDS011;62385;41.594;23.808;2023-05-07T13:19:38;1.25;;;0.70;;
24159;SDS011;62385;41.594;23.808;2023-05-07T13:22:04;0.57;;;0.40;;
24159;SDS011;62385;41.594;23.808;2023-05-07T13:24:29;0.95;;;0.80;;
24159;SDS011;62385;41.594;23.808;2023-05-07T13:26:55;0.60;;;0.60;;
24159;SDS011;62385;41.594;23.808;2023-05-07T13:29:21;0.95;;;0.73;;
24159;SDS011;62385;41.594;23.808;2023-05-07T13:31:54;0.60;;;0.60;;
24159;SDS011;62385;41.594;23.808;2023-05-07T13:34:19;1.45;;;0.70;;
24159;SDS011;62385;41.594;23.808;2023-05-07T13:36:46;0.47;;;0.45;;
24159;SDS011;62385;41.594;23.808;2023-05-07T13:39:11;0.65;;;0.60;;
24159;SDS011;62385;41.594;23.808;2023-05-07T13:41:38;1.05;;;0.85;;
24159;SDS011;62385;41.594;23.808;2023-05-07T13:44:03;0.57;;;0.50;;
24159;SDS011;62385;41.594;23.808;2023-05-07T13:46:29;0.82;;;0.60;;
24159;SDS011;62385;41.594;23.808;2023-05-07T13:48:55;1.30;;;1.02;;
24159;SDS011;62385;41.594;23.808;2023-05-07T13:51:21;1.25;;;0.98;;
24159;SDS011;62385;41.594;23.808;2023-05-07T13:53:47;0.60;;;0.60;;
24159;SDS011;62385;41.594;23.808;2023-05-07T13:56:13;1.08;;;0.73;;
24159;SDS011;62385;41.594;23.808;2023-05-07T13:58:39;0.90;;;0.70;;
24159;SDS011;62385;41.594;23.808;2023-05-07T14:01:05;0.60;;;0.52;;
24159;SDS011;62385;41.594;23.808;2023-05-07T14:03:30;1.02;;;0.80;;
24159;SDS011;62385;41.594;23.808;2023-05-07T14:05:58;0.90;;;0.70;;
24159;SDS011;62385;41.594;23.808;2023-05-07T14:08:25;0.88;;;0.80;;
24159;SDS011;62385;41.594;23.808;2023-05-07T14:10:51;0.82;;;0.77;;
24159;SDS011;62385;41.594;23.808;2023-05-07T14:13:16;1.80;;;1.10;;
24159;SDS011;62385;41.594;23.808;2023-05-07T14:15:42;3.97;;;1.15;;
24159;SDS011;62385;41.594;23.808;2023-05-07T14:18:12;1.92;;;1.05;;
24159;SDS011;62385;41.594;23.808;2023-05-07T14:20:38;1.35;;;0.88;;
24159;SDS011;62385;41.594;23.808;2023-05-07T14:23:03;1.25;;;0.90;;
24159;SDS011;62385;41.594;23.808;2023-05-07T14:25:29;1.75;;;1.10;;
24159;SDS011;62385;41.594;23.808;2023-05-07T14:27:55;1.48;;;1.05;;
24159;SDS011;62385;41.594;23.808;2023-05-07T14:30:21;1.60;;;1.50;;
24159;SDS011;62385;41.594;23.808;2023-05-07T14:32:50;1.30;;;0.90;;
24159;SDS011;62385;41.594;23.808;2023-05-07T14:35:16;1.17;;;0.70;;
24159;SDS011;62385;41.594;23.808;2023-05-07T14:37:42;1.40;;;0.82;;
24159;SDS011;62385;41.594;23.808;2023-05-07T14:40:08;1.70;;;0.77;;
24159;SDS011;62385;41.594;23.808;2023-05-07T14:42:34;1.40;;;0.63;;
24159;SDS011;62385;41.594;23.808;2023-05-07T14:45:02;0.65;;;0.65;;
24159;SDS011;62385;41.594;23.808;2023-05-07T14:47:27;0.77;;;0.68;;
24159;SDS011;62385;41.594;23.808;2023-05-07T14:49:54;0.45;;;0.45;;
24159;SDS011;62385;41.594;23.808;2023-05-07T14:52:21;0.80;;;0.73;;
24159;SDS011;62385;41.594;23.808;2023-05-07T14:54:47;1.85;;;1.50;;
24159;SDS011;62385;41.594;23.808;2023-05-07T14:57:13;3.28;;;1.30;;
24159;SDS011;62385;41.594;23.808;2023-05-07T14:59:41;1.10;;;0.80;;
24159;SDS011;62385;41.594;23.808;2023-05-07T15:02:07;1.20;;;0.70;;
24159;SDS011;62385;41.594;23.808;2023-05-07T15:04:36;1.13;;;0.93;;
24159;SDS011;62385;41.594;23.808;2023-05-07T15:07:03;1.02;;;0.75;;
24159;SDS011;62385;41.594;23.808;2023-05-07T15:09:29;0.88;;;0.85;;
24159;SDS011;62385;41.594;23.808;2023-05-07T15:11:54;0.45;;;0.45;;